createdAt,value
2019-04-01T00:00:21.728Z,6.87
2019-04-01T00:02:49.860Z,4.83
2019-04-01T00:05:18.067Z,11.80
2019-04-01T00:07:46.254Z,15.83
2019-04-01T00:10:14.426Z,8.77
2019-04-01T00:12:42.635Z,12.37
2019-04-01T00:15:10.856Z,11.83
2019-04-01T00:17:38.996Z,8.97
2019-04-01T00:20:07.900Z,9.37
2019-04-01T00:22:36.093Z,10.60
2019-04-01T00:25:04.457Z,7.60
2019-04-01T00:27:32.599Z,10.37
2019-04-01T00:30:00.725Z,7.13
2019-04-01T00:32:28.932Z,9.47
2019-04-01T00:34:57.607Z,9.60
2019-04-01T00:37:25.866Z,9.30
2019-04-01T00:39:54.019Z,9.77
2019-04-01T00:42:32.823Z,9.10
2019-04-01T00:45:01.093Z,11.90
2019-04-01T00:47:29.291Z,6.60
2019-04-01T00:49:57.474Z,7.67
2019-04-01T00:52:25.612Z,6.97
2019-04-01T00:54:53.735Z,12.97
2019-04-01T00:57:22.923Z,10.63
2019-04-01T00:59:51.205Z,10.50
2019-04-01T01:02:19.391Z,11.00
2019-04-01T01:04:47.563Z,6.90
2019-04-01T01:07:15.859Z,5.47
2019-04-01T01:09:44.418Z,8.00
2019-04-01T01:12:12.658Z,7.77
2019-04-01T01:14:40.869Z,6.07
2019-04-01T01:17:09.443Z,6.10
2019-04-01T01:19:37.825Z,9.60
2019-04-01T01:22:06.045Z,9.23
2019-04-01T01:24:34.410Z,7.43
2019-04-01T01:27:02.611Z,4.30
2019-04-01T01:29:30.910Z,9.00
2019-04-01T01:31:59.157Z,8.00
2019-04-01T01:34:27.404Z,12.73
2019-04-01T01:36:55.572Z,9.83
2019-04-01T01:39:23.785Z,9.93
2019-04-01T01:41:52.058Z,9.77
2019-04-01T01:44:20.275Z,8.83
2019-04-01T01:46:48.918Z,11.37
2019-04-01T01:49:17.397Z,8.37
2019-04-01T01:51:45.523Z,9.70
2019-04-01T01:54:13.693Z,9.77
2019-04-01T01:56:41.938Z,9.30
2019-04-01T01:59:10.097Z,6.90
2019-04-01T02:01:38.418Z,10.47
2019-04-01T02:04:06.542Z,11.80
2019-04-01T02:06:34.721Z,10.90
2019-04-01T02:09:03.324Z,10.80
2019-04-01T02:11:31.503Z,11.80
2019-04-01T02:13:59.670Z,6.20
2019-04-01T02:16:30.480Z,12.73
2019-04-01T02:18:58.972Z,12.77
2019-04-01T02:21:27.188Z,10.63
2019-04-01T02:23:55.328Z,9.43
2019-04-01T02:26:23.581Z,14.13
2019-04-01T02:28:51.765Z,8.30
2019-04-01T02:31:20.187Z,10.47
2019-04-01T02:33:48.316Z,9.73
2019-04-01T02:36:16.466Z,11.23
2019-04-01T02:38:44.597Z,9.13
2019-04-01T02:41:13.107Z,8.77
2019-04-01T02:43:41.311Z,10.13
2019-04-01T02:46:09.521Z,6.13
2019-04-01T02:48:37.949Z,12.60
2019-04-01T02:51:06.153Z,8.77
2019-04-01T02:53:34.293Z,8.97
2019-04-01T02:56:02.453Z,10.37
2019-04-01T02:58:30.644Z,13.40
2019-04-01T03:00:58.853Z,5.60
2019-04-01T03:03:26.964Z,8.37
2019-04-01T03:05:55.161Z,8.57
2019-04-01T03:08:23.307Z,9.53
2019-04-01T03:10:51.455Z,11.27
2019-04-01T03:13:19.594Z,8.07
2019-04-01T03:15:47.710Z,6.83
2019-04-01T03:18:15.853Z,9.67
2019-04-01T03:20:44.045Z,8.00
2019-04-01T03:23:12.174Z,8.73
2019-04-01T03:25:40.322Z,7.17
2019-04-01T03:28:08.728Z,12.47
2019-04-01T03:30:36.867Z,7.70
2019-04-01T03:33:05.008Z,6.93
2019-04-01T03:35:33.418Z,9.37
2019-04-01T03:38:01.577Z,9.43
2019-04-01T03:40:29.693Z,11.80
2019-04-01T03:42:57.802Z,7.13
2019-04-01T03:45:26.214Z,11.17
2019-04-01T03:47:54.315Z,8.83
2019-04-01T03:50:22.454Z,7.07
2019-04-01T03:52:50.583Z,10.60
2019-04-01T03:55:18.720Z,7.93
2019-04-01T03:57:46.833Z,7.97
2019-04-01T04:00:15.088Z,10.13
2019-04-01T04:02:43.289Z,6.20
2019-04-01T04:05:11.564Z,6.87
2019-04-01T04:07:39.865Z,16.73
2019-04-01T04:10:08.211Z,9.23
2019-04-01T04:12:36.468Z,15.57
2019-04-01T04:15:05.691Z,8.20
2019-04-01T04:17:33.805Z,9.07
2019-04-01T04:20:01.954Z,11.17
2019-04-01T04:22:30.086Z,9.90
2019-04-01T04:24:58.373Z,10.13
2019-04-01T04:27:26.616Z,8.57
2019-04-01T04:29:54.784Z,8.60
2019-04-01T04:32:22.974Z,11.13
2019-04-01T04:34:51.096Z,10.77
2019-04-01T04:37:19.270Z,8.50
2019-04-01T04:39:47.513Z,8.63
2019-04-01T04:42:15.927Z,7.37
2019-04-01T04:44:44.043Z,16.97
2019-04-01T04:47:12.192Z,12.53
2019-04-01T04:49:40.371Z,15.33
2019-04-01T04:52:08.518Z,15.57
2019-04-01T04:54:36.712Z,13.33
2019-04-01T04:57:04.916Z,18.67
2019-04-01T04:59:33.037Z,9.13
2019-04-01T05:02:01.205Z,10.67
2019-04-01T05:04:29.310Z,12.13
2019-04-01T05:06:57.548Z,10.50
2019-04-01T05:09:25.657Z,13.57
2019-04-01T05:11:53.769Z,17.30
2019-04-01T05:14:21.984Z,14.60
2019-04-01T05:16:50.171Z,12.60
2019-04-01T05:19:18.389Z,13.23
2019-04-01T05:21:46.577Z,8.17
2019-04-01T05:24:15.496Z,11.70
2019-04-01T05:26:44.299Z,11.87
2019-04-01T05:29:12.446Z,7.27
2019-04-01T05:31:41.152Z,8.17
2019-04-01T05:34:10.074Z,10.37
2019-04-01T05:36:38.443Z,12.37
2019-04-01T05:39:06.966Z,15.80
2019-04-01T05:41:35.861Z,10.73
2019-04-01T05:44:04.389Z,15.80
2019-04-01T05:46:33.415Z,11.47
2019-04-01T05:49:01.634Z,9.30
2019-04-01T05:51:29.828Z,23.57
2019-04-01T05:53:58.060Z,66.73
2019-04-01T05:56:26.247Z,18.37
2019-04-01T05:58:54.441Z,13.97
2019-04-01T06:01:24.288Z,14.40
2019-04-01T06:03:52.496Z,11.27
2019-04-01T06:06:20.709Z,12.93
2019-04-01T06:08:48.901Z,8.73
2019-04-01T06:11:17.040Z,8.63
2019-04-01T06:13:45.225Z,7.60
2019-04-01T06:16:13.480Z,13.80
2019-04-01T06:18:41.599Z,7.60
2019-04-01T06:21:09.827Z,15.60
2019-04-01T06:23:38.021Z,13.57
2019-04-01T06:26:06.246Z,17.63
2019-04-01T06:28:34.425Z,7.03
2019-04-01T06:31:02.641Z,8.37
2019-04-01T06:33:31.048Z,12.23
2019-04-01T06:35:59.277Z,9.93
2019-04-01T06:38:27.468Z,11.90
2019-04-01T06:40:55.604Z,7.73
2019-04-01T06:43:23.794Z,7.20
2019-04-01T06:45:52.008Z,12.53
2019-04-01T06:48:20.186Z,7.07
2019-04-01T06:50:48.388Z,8.73
2019-04-01T06:53:16.516Z,11.70
2019-04-01T06:55:44.699Z,10.70
2019-04-01T06:58:13.200Z,10.00
2019-04-01T07:00:41.380Z,6.80
2019-04-01T07:03:09.521Z,9.30
2019-04-01T07:05:37.700Z,11.07
2019-04-01T07:08:05.834Z,10.37
2019-04-01T07:10:34.211Z,9.63
2019-04-01T07:13:02.415Z,8.00
2019-04-01T07:15:30.680Z,11.97
2019-04-01T07:17:58.884Z,11.40
2019-04-01T07:20:27.178Z,8.80
2019-04-01T07:22:55.380Z,9.70
2019-04-01T07:25:23.574Z,10.17
2019-04-01T07:27:51.689Z,8.53
2019-04-01T07:30:19.898Z,8.47
2019-04-01T07:32:48.152Z,8.63
2019-04-01T07:35:16.369Z,9.90
2019-04-01T07:37:44.552Z,7.73
2019-04-01T07:40:14.126Z,10.43
2019-04-01T07:42:42.414Z,7.70
2019-04-01T07:45:10.739Z,11.07
2019-04-01T07:47:38.954Z,12.43
2019-04-01T07:50:07.893Z,9.93
2019-04-01T07:52:36.015Z,10.53
2019-04-01T07:55:05.425Z,9.50
2019-04-01T07:57:33.613Z,9.37
2019-04-01T08:00:01.787Z,10.43
2019-04-01T08:02:29.886Z,9.63
2019-04-01T08:04:58.269Z,11.33
2019-04-01T08:07:26.471Z,9.37
2019-04-01T08:09:54.652Z,8.23
2019-04-01T08:12:22.787Z,13.00
2019-04-01T08:14:50.972Z,12.50
2019-04-01T08:17:19.098Z,13.43
2019-04-01T08:19:47.289Z,10.67
2019-04-01T08:22:15.433Z,9.03
2019-04-01T08:24:43.616Z,8.97
2019-04-01T08:27:11.750Z,9.33
2019-04-01T08:29:39.928Z,11.73
2019-04-01T08:32:08.140Z,10.90
2019-04-01T08:34:36.311Z,10.67
2019-04-01T08:37:04.546Z,13.17
2019-04-01T08:39:32.650Z,12.27
2019-04-01T08:42:00.763Z,12.73
2019-04-01T08:44:28.932Z,7.00
2019-04-01T08:46:57.112Z,13.73
2019-04-01T08:49:25.245Z,8.73
2019-04-01T08:51:53.524Z,10.07
2019-04-01T08:54:21.731Z,11.33
2019-04-01T08:56:49.854Z,8.00
2019-04-01T08:59:17.973Z,8.60
2019-04-01T09:01:46.766Z,12.07
2019-04-01T09:04:15.168Z,12.67
2019-04-01T09:06:43.293Z,12.97
2019-04-01T09:09:11.420Z,8.70
2019-04-01T09:11:39.609Z,10.47
2019-04-01T09:14:07.814Z,12.13
2019-04-01T09:16:36.079Z,8.97
2019-04-01T09:19:04.264Z,10.07
2019-04-01T09:21:32.711Z,8.40
2019-04-01T09:24:00.828Z,13.77
2019-04-01T09:26:28.960Z,12.17
2019-04-01T09:28:57.148Z,11.10
2019-04-01T09:31:25.302Z,10.03
2019-04-01T09:33:53.485Z,14.63
2019-04-01T09:36:21.631Z,13.20
2019-04-01T09:38:49.828Z,12.97
2019-04-01T09:41:17.976Z,9.07
2019-04-01T09:43:46.089Z,11.10
2019-04-01T09:46:14.230Z,12.00
2019-04-01T09:48:42.343Z,11.17
2019-04-01T09:51:10.561Z,10.87
2019-04-01T09:53:38.679Z,11.90
2019-04-01T09:56:06.792Z,12.30
2019-04-01T09:58:34.935Z,13.10
2019-04-01T10:01:03.375Z,15.70
2019-04-01T10:03:31.514Z,11.50
2019-04-01T10:05:59.639Z,14.87
2019-04-01T10:08:41.440Z,12.33
2019-04-01T10:10:57.623Z,16.17
2019-04-01T10:13:25.760Z,14.53
2019-04-01T10:15:53.896Z,13.10
2019-04-01T10:18:22.025Z,13.50
2019-04-01T10:20:50.205Z,18.17
2019-04-01T10:23:18.351Z,15.13
2019-04-01T10:25:46.469Z,18.27
2019-04-01T10:28:14.619Z,12.80
2019-04-01T10:30:42.744Z,14.10
2019-04-01T10:33:10.958Z,18.30
2019-04-01T10:35:39.109Z,15.20
2019-04-01T10:38:07.236Z,13.17
2019-04-01T10:40:35.420Z,15.33
2019-04-01T10:43:03.591Z,13.80
2019-04-01T10:45:31.731Z,14.90
2019-04-01T10:47:59.934Z,20.83
2019-04-01T10:50:28.108Z,14.47
2019-04-01T10:52:56.439Z,14.73
2019-04-01T10:55:24.627Z,18.13
2019-04-01T10:57:54.131Z,19.50
2019-04-01T11:00:22.793Z,15.50
2019-04-01T11:02:51.009Z,17.17
2019-04-01T11:05:19.185Z,16.20
2019-04-01T11:07:47.315Z,15.23
2019-04-01T11:10:15.602Z,16.73
2019-04-01T11:12:43.716Z,20.13
2019-04-01T11:15:15.367Z,15.33
2019-04-01T11:17:43.901Z,17.00
2019-04-01T11:20:12.316Z,18.30
2019-04-01T11:22:40.455Z,21.43
2019-04-01T11:25:08.761Z,14.67
2019-04-01T11:27:36.884Z,15.17
2019-04-01T11:30:05.797Z,16.33
2019-04-01T11:32:34.019Z,16.03
2019-04-01T11:35:02.329Z,16.63
2019-04-01T11:37:30.527Z,18.67
2019-04-01T11:39:58.710Z,18.10
2019-04-01T11:42:26.920Z,21.20
2019-04-01T11:44:55.143Z,15.83
2019-04-01T11:47:23.336Z,14.50
2019-04-01T11:49:51.561Z,18.30
2019-04-01T11:52:19.841Z,16.23
2019-04-01T11:54:48.399Z,17.83
2019-04-01T11:57:16.555Z,18.40
2019-04-01T11:59:44.682Z,19.13
2019-04-01T12:02:12.952Z,17.83
2019-04-01T12:04:41.070Z,22.20
2019-04-01T12:07:09.274Z,17.43
2019-04-01T12:15:34.483Z,17.80
2019-04-01T12:18:02.614Z,19.47
2019-04-01T12:20:31.026Z,19.90
2019-04-01T12:22:59.148Z,20.50
2019-04-01T12:25:27.259Z,18.83
2019-04-01T12:27:56.309Z,22.53
2019-04-01T12:30:24.427Z,19.90
2019-04-01T12:32:52.554Z,17.83
2019-04-01T12:35:20.785Z,21.60
2019-04-01T12:37:48.969Z,20.53
2019-04-01T12:40:17.181Z,22.07
2019-04-01T12:42:46.371Z,22.43
2019-04-01T12:45:15.264Z,18.03
2019-04-01T12:47:43.697Z,19.57
2019-04-01T12:50:12.048Z,19.77
2019-04-01T12:52:40.162Z,22.13
2019-04-01T12:55:08.371Z,20.53
2019-04-01T12:57:36.552Z,27.80
2019-04-01T13:00:06.602Z,22.13
2019-04-01T13:02:34.716Z,18.63
2019-04-01T13:05:02.852Z,21.40
2019-04-01T13:07:31.038Z,19.47
2019-04-01T13:09:59.166Z,23.73
2019-04-01T13:12:27.617Z,23.10
2019-04-01T13:14:55.898Z,20.10
2019-04-01T13:17:24.080Z,18.20
2019-04-01T13:19:52.192Z,18.43
2019-04-01T13:22:20.333Z,20.80
2019-04-01T13:24:48.443Z,18.67
2019-04-01T13:27:16.585Z,25.63
2019-04-01T13:29:44.700Z,19.87
2019-04-01T13:32:12.906Z,22.13
2019-04-01T13:34:41.957Z,20.10
2019-04-01T13:37:10.497Z,19.07
2019-04-01T13:39:38.688Z,21.13
2019-04-01T13:42:06.815Z,19.93
2019-04-01T13:44:37.380Z,23.60
2019-04-01T13:47:04.797Z,22.80
2019-04-01T13:49:34.507Z,18.60
2019-04-01T13:52:03.785Z,19.57
2019-04-01T13:54:32.268Z,19.00
2019-04-01T13:57:00.398Z,20.03
2019-04-01T13:59:28.507Z,17.70
2019-04-01T14:01:57.132Z,24.03
2019-04-01T14:04:27.345Z,20.83
2019-04-01T14:06:55.710Z,18.23
2019-04-01T14:09:23.822Z,21.40
2019-04-01T14:11:51.935Z,25.83
2019-04-01T14:14:20.088Z,18.33
2019-04-01T14:16:48.201Z,19.07
2019-04-01T14:19:16.331Z,19.03
2019-04-01T14:21:44.495Z,21.27
2019-04-01T14:24:13.646Z,20.53
2019-04-01T14:26:41.765Z,19.83
2019-04-01T14:29:10.006Z,19.90
2019-04-01T14:31:38.185Z,19.63
2019-04-01T14:34:06.680Z,20.60
2019-04-01T14:36:36.019Z,23.70
2019-04-01T14:39:05.790Z,18.60
2019-04-01T14:41:33.891Z,19.67
2019-04-01T14:44:02.021Z,22.40
2019-04-01T14:46:30.131Z,23.37
2019-04-01T14:49:00.291Z,21.27
2019-04-01T14:51:28.109Z,18.90
2019-04-01T14:53:56.297Z,22.57
2019-04-01T14:56:24.700Z,20.37
2019-04-01T14:58:53.024Z,15.73
2019-04-01T15:01:21.661Z,18.10
2019-04-01T15:03:49.790Z,17.30
2019-04-01T15:06:18.172Z,22.63
2019-04-01T15:08:46.504Z,22.47
2019-04-01T15:11:15.707Z,22.60
2019-04-01T15:13:43.887Z,22.57
2019-04-01T15:16:12.031Z,22.97
2019-04-01T15:18:40.158Z,22.67
2019-04-01T15:21:11.476Z,20.50
2019-04-01T15:23:38.248Z,21.03
2019-04-01T15:26:06.439Z,19.57
2019-04-01T15:28:34.632Z,17.93
2019-04-01T15:31:02.864Z,24.33
2019-04-01T15:33:31.037Z,21.97
2019-04-01T15:35:59.149Z,25.87
2019-04-01T15:38:27.301Z,20.47
2019-04-01T15:40:58.226Z,24.97
2019-04-01T15:43:25.653Z,21.67
2019-04-01T15:45:53.774Z,22.47
2019-04-01T15:48:21.918Z,20.50
2019-04-01T15:50:50.032Z,24.13
2019-04-01T15:53:18.155Z,20.90
2019-04-01T15:55:46.276Z,23.43
2019-04-01T15:58:14.418Z,25.03
2019-04-01T16:00:42.532Z,17.30
2019-04-01T16:03:10.732Z,20.27
2019-04-01T16:05:38.895Z,21.33
2019-04-01T16:08:07.070Z,21.80
2019-04-01T16:10:35.193Z,20.73
2019-04-01T16:13:03.469Z,21.07
2019-04-01T16:15:32.303Z,20.57
2019-04-01T16:18:02.178Z,23.00
2019-04-01T16:20:33.929Z,22.53
2019-04-01T16:23:00.452Z,17.47
2019-04-01T16:25:28.575Z,19.80
2019-04-01T16:27:56.680Z,18.67
2019-04-01T16:30:24.812Z,22.63
2019-04-01T16:32:52.941Z,21.00
2019-04-01T16:35:21.076Z,20.13
2019-04-01T16:37:49.259Z,19.83
2019-04-01T16:40:18.336Z,21.37
2019-04-01T16:42:47.304Z,19.97
2019-04-01T16:45:17.055Z,19.83
2019-04-01T16:47:48.327Z,22.40
2019-04-01T16:50:15.026Z,20.83
2019-04-01T16:52:43.195Z,19.30
2019-04-01T16:55:11.391Z,26.23
2019-04-01T16:57:39.510Z,20.90
2019-04-01T17:00:09.298Z,22.73
2019-04-01T17:02:37.403Z,19.03
2019-04-01T17:05:06.010Z,21.87
2019-04-01T17:07:34.183Z,21.67
2019-04-01T17:10:03.288Z,26.10
2019-04-01T17:12:32.316Z,22.10
2019-04-01T17:15:03.547Z,23.13
2019-04-01T17:17:31.276Z,25.43
2019-04-01T17:19:59.437Z,21.43
2019-04-01T17:22:27.543Z,20.87
2019-04-01T17:24:57.170Z,22.67
2019-04-01T17:27:25.528Z,21.33
2019-04-01T17:29:53.665Z,22.60
2019-04-01T17:32:21.855Z,20.97
2019-04-01T17:34:49.969Z,21.47
2019-04-01T17:37:18.104Z,18.73
2019-04-01T17:39:46.220Z,22.73
2019-04-01T17:42:14.407Z,22.10
2019-04-01T17:44:42.685Z,18.73
2019-04-01T17:47:10.865Z,21.37
2019-04-01T17:49:38.968Z,20.90
2019-04-01T17:52:07.437Z,20.70
2019-04-01T17:54:35.625Z,25.20
2019-04-01T17:57:04.126Z,27.53
2019-04-01T17:59:32.385Z,25.73
2019-04-01T18:02:00.963Z,19.33
2019-04-01T18:04:31.119Z,27.27
2019-04-01T18:06:59.718Z,20.33
2019-04-01T18:09:27.887Z,22.33
2019-04-01T18:11:56.082Z,20.47
2019-04-01T18:14:24.318Z,20.93
2019-04-01T18:16:52.502Z,28.43
2019-04-01T18:19:20.659Z,26.33
2019-04-01T18:21:48.844Z,22.83
2019-04-01T18:24:16.987Z,22.17
2019-04-01T18:26:45.209Z,22.13
2019-04-01T18:29:14.312Z,25.87
2019-04-01T18:31:42.416Z,18.93
2019-04-01T18:34:10.552Z,22.87
2019-04-01T18:36:38.679Z,21.23
2019-04-01T18:39:07.598Z,22.27
2019-04-01T18:41:35.708Z,22.93
2019-04-01T18:44:04.312Z,24.63
2019-04-01T18:46:32.522Z,20.10
2019-04-01T18:49:00.620Z,22.20
2019-04-01T18:51:28.752Z,24.53
2019-04-01T18:53:56.880Z,25.87
2019-04-01T18:56:25.011Z,22.43
2019-04-01T18:58:54.010Z,25.53
2019-04-01T19:01:22.320Z,21.80
2019-04-01T19:03:50.447Z,23.47
2019-04-01T19:06:18.677Z,21.07
2019-04-01T19:08:46.804Z,24.63
2019-04-01T19:11:15.002Z,23.90
2019-04-01T19:13:43.161Z,23.43
2019-04-01T19:16:16.426Z,21.40
2019-04-01T19:18:43.183Z,22.13
2019-04-01T19:21:11.388Z,22.47
2019-04-01T19:23:39.774Z,20.57
2019-04-01T19:26:10.098Z,21.13
2019-04-01T19:28:37.859Z,24.60
2019-04-01T19:31:06.044Z,24.83
2019-04-01T19:33:34.321Z,23.30
2019-04-01T19:36:02.824Z,20.97
2019-04-01T19:38:30.938Z,22.30
2019-04-01T19:40:59.944Z,20.00
2019-04-01T19:43:28.671Z,21.33
2019-04-01T19:45:56.857Z,21.77
2019-04-01T19:48:25.000Z,22.73
2019-04-01T19:50:53.218Z,19.87
2019-04-01T19:53:21.489Z,22.67
2019-04-01T19:55:49.730Z,17.47
2019-04-01T19:58:17.864Z,20.43
2019-04-01T20:00:45.983Z,22.67
2019-04-01T20:03:14.197Z,22.67
2019-04-01T20:05:42.336Z,21.67
2019-04-01T20:08:13.901Z,19.27
2019-04-01T20:10:40.574Z,20.47
2019-04-01T20:13:10.810Z,22.93
2019-04-01T20:15:39.078Z,19.87
2019-04-01T20:18:07.981Z,22.20
2019-04-01T20:20:36.520Z,19.33
2019-04-01T20:23:04.704Z,23.60
2019-04-01T20:25:32.851Z,24.17
2019-04-01T20:28:00.985Z,20.47
2019-04-01T20:30:29.202Z,18.60
2019-04-01T20:32:57.535Z,22.93
2019-04-01T20:35:25.755Z,21.07
2019-04-01T20:37:53.868Z,24.73
2019-04-01T20:40:22.039Z,24.67
2019-04-01T20:42:51.231Z,26.77
2019-04-01T20:45:19.784Z,29.87
2019-04-01T20:47:50.228Z,26.57
2019-04-01T20:50:17.974Z,30.53
2019-04-01T20:52:46.117Z,25.27
2019-04-01T20:55:14.520Z,25.87
2019-04-01T20:57:42.658Z,27.90
2019-04-01T21:00:11.821Z,28.90
2019-04-01T21:02:39.987Z,31.60
2019-04-01T21:05:08.735Z,28.77
2019-04-01T21:07:37.020Z,28.40
2019-04-01T21:10:06.272Z,30.00
2019-04-01T21:12:34.487Z,26.60
2019-04-01T21:15:02.741Z,26.50
2019-04-01T21:17:30.877Z,27.57
2019-04-01T21:19:59.005Z,23.20
2019-04-01T21:22:27.156Z,26.60
2019-04-01T21:24:55.268Z,28.03
2019-04-01T21:27:24.145Z,23.73
2019-04-01T21:29:52.801Z,29.70
2019-04-01T21:32:20.942Z,26.97
2019-04-01T21:34:49.081Z,31.07
2019-04-01T21:37:17.249Z,26.90
2019-04-01T21:39:45.360Z,26.73
2019-04-01T21:42:13.553Z,25.97
2019-04-01T21:44:41.703Z,26.13
2019-04-01T21:47:09.892Z,21.67
2019-04-01T21:49:38.067Z,26.07
2019-04-01T21:52:06.280Z,24.27
2019-04-01T21:54:34.420Z,25.53
2019-04-01T21:57:02.613Z,26.03
2019-04-01T21:59:30.766Z,23.03
2019-04-01T22:01:59.059Z,22.47
2019-04-01T22:04:27.330Z,26.50
2019-04-01T22:06:55.568Z,24.03
2019-04-01T22:09:23.889Z,23.63
2019-04-01T22:11:52.111Z,26.50
2019-04-01T22:14:20.415Z,26.17
2019-04-01T22:16:48.705Z,22.07
2019-04-01T22:19:16.978Z,24.30
2019-04-01T22:21:45.121Z,25.93
2019-04-01T22:24:13.317Z,24.23
2019-04-01T22:26:41.441Z,23.50
2019-04-01T22:29:09.572Z,23.57
2019-04-01T22:31:37.815Z,25.17
2019-04-01T22:34:05.930Z,26.43
2019-04-01T22:36:34.066Z,25.93
2019-04-01T22:39:02.188Z,24.97
2019-04-01T22:41:30.333Z,25.70
2019-04-01T22:43:58.465Z,27.77
2019-04-01T22:46:26.621Z,24.03
2019-04-01T22:48:54.751Z,25.90
2019-04-01T22:51:22.889Z,26.13
2019-04-01T22:53:51.047Z,26.33
2019-04-01T22:56:19.287Z,28.23
2019-04-01T22:58:47.420Z,23.13
2019-04-01T23:01:16.151Z,26.47
2019-04-01T23:03:44.651Z,30.43
2019-04-01T23:06:12.784Z,23.90
2019-04-01T23:08:40.944Z,25.30
2019-04-01T23:11:09.084Z,29.53
2019-04-01T23:13:37.315Z,28.07
2019-04-01T23:16:05.471Z,27.97
2019-04-01T23:18:33.647Z,24.03
2019-04-01T23:21:02.242Z,24.53
2019-04-01T23:23:30.804Z,25.03
2019-04-01T23:25:58.957Z,23.97
2019-04-01T23:28:27.133Z,24.47
2019-04-01T23:30:55.336Z,25.70
2019-04-01T23:33:23.509Z,24.80
2019-04-01T23:35:51.644Z,26.73
2019-04-01T23:38:19.793Z,24.93
2019-04-01T23:40:48.001Z,23.23
2019-04-01T23:43:16.153Z,25.57
2019-04-01T23:45:44.423Z,25.80
2019-04-01T23:48:13.923Z,24.43
2019-04-01T23:50:42.202Z,27.53
2019-04-01T23:53:10.357Z,26.93
2019-04-01T23:55:38.549Z,25.13
2019-04-01T23:58:06.725Z,29.63
